Time;durP1;ratioP1;P1;durP2;ratioP2;P2;SDS_P1;SDS_P2;PMS_P1;PMS_P2;Temp;Humidity;BMP_temperature;BMP_pressure;BME280_temperature;BME280_humidity;BME280_pressure;Samples;Min_cycle;Max_cycle;Signal;HPM_P1;HPM_P2
2023/01/29 00:00:38;;;;;;;10.50;7.00;;;;;;;-2.24;100.00;99866.13;104334;1253;72117;-60
2023/01/29 00:03:07;;;;;;;9.90;6.60;;;;;;;-2.28;100.00;99867.44;104482;1254;69819;-60
2023/01/29 00:05:35;;;;;;;10.70;7.90;;;;;;;-2.27;100.00;99869.36;104370;1252;71559;-59
2023/01/29 00:08:04;;;;;;;10.50;7.10;;;;;;;-2.31;100.00;99867.42;104529;1252;59722;-60
2023/01/29 00:10:36;;;;;;;9.10;6.80;;;;;;;-2.35;100.00;99871.65;104390;1256;60371;-59
2023/01/29 00:13:05;;;;;;;14.40;7.70;;;;;;;-2.40;100.00;99876.57;104461;1256;72102;-60
2023/01/29 00:15:34;;;;;;;10.70;7.60;;;;;;;-2.44;100.00;99880.64;104802;1251;68879;-61
2023/01/29 00:18:02;;;;;;;10.60;7.40;;;;;;;-2.45;100.00;99883.71;104645;1253;72124;-59
2023/01/29 00:20:32;;;;;;;15.90;8.10;;;;;;;-2.42;100.00;99884.94;104830;1252;59633;-60
2023/01/29 00:23:01;;;;;;;14.50;8.50;;;;;;;-2.41;100.00;99883.08;104579;1251;59761;-60
2023/01/29 00:25:30;;;;;;;13.00;8.50;;;;;;;-2.44;100.00;99889.05;104395;1265;73172;-59
2023/01/29 00:27:58;;;;;;;14.80;8.60;;;;;;;-2.47;100.00;99889.17;104695;1251;69766;-60
2023/01/29 00:30:28;;;;;;;13.30;9.50;;;;;;;-2.49;100.00;99889.48;104641;1256;72060;-60
2023/01/29 00:32:57;;;;;;;13.00;8.50;;;;;;;-2.50;100.00;99886.05;104891;1251;60460;-59
2023/01/29 00:35:27;;;;;;;14.70;8.40;;;;;;;-2.46;100.00;99887.64;104425;1256;59729;-59
2023/01/29 00:37:56;;;;;;;15.10;9.30;;;;;;;-2.45;100.00;99885.79;104507;1267;72660;-60
2023/01/29 00:40:25;;;;;;;14.70;9.20;;;;;;;-2.48;100.00;99886.59;104265;1275;69206;-59
2023/01/29 04:22:27;;;;;;;19.00;12.80;;;;;;;-3.39;100.00;99901.69;102540;1283;614271;-59
2023/01/29 04:25:01;;;;;;;16.90;11.80;;;;;;;-2.90;100.00;99895.91;103563;1272;200457;-59
2023/01/29 04:27:53;;;;;;;18.80;11.30;;;;;;;-2.82;100.00;99894.67;103657;1271;60371;-59
2023/01/29 04:30:43;;;;;;;16.80;11.40;;;;;;;-2.70;100.00;99891.59;104015;1267;71198;-59
2023/01/29 04:33:35;;;;;;;17.40;10.50;;;;;;;-2.64;100.00;99888.77;103805;1267;69300;-60
2023/01/29 04:36:16;;;;;;;14.30;9.20;;;;;;;-2.56;100.00;99897.46;103519;1282;72933;-60
2023/01/29 04:39:16;;;;;;;15.20;9.40;;;;;;;-2.44;100.00;99891.45;103624;1270;60991;-60
2023/01/29 04:41:58;;;;;;;16.50;9.70;;;;;;;-2.35;100.00;99897.06;103743;1271;59326;-59
2023/01/29 04:44:38;;;;;;;16.30;10.00;;;;;;;-2.31;100.00;99900.03;103705;1269;71783;-58
2023/01/29 04:47:31;;;;;;;13.70;9.30;;;;;;;-2.27;100.00;99899.59;103753;1282;68410;-58
2023/01/29 04:50:16;;;;;;;13.90;9.30;;;;;;;-2.23;100.00;99899.80;103803;1266;72880;-59
2023/01/29 04:52:52;;;;;;;15.20;9.10;;;;;;;-2.13;100.00;99899.58;103667;1275;59814;-58
2023/01/29 04:55:38;;;;;;;14.50;10.40;;;;;;;-2.05;100.00;99898.81;103659;1267;59746;-58
2023/01/29 04:58:13;;;;;;;19.30;10.10;;;;;;;-2.03;100.00;99897.13;104044;1258;73080;-58
2023/01/29 05:00:42;;;;;;;15.20;9.40;;;;;;;-2.03;100.00;99901.94;104008;1259;69222;-59
2023/01/29 05:03:12;;;;;;;14.40;9.30;;;;;;;-2.03;100.00;99903.98;103749;1265;72633;-59
2023/01/29 05:05:44;;;;;;;15.00;9.30;;;;;;;-2.01;100.00;99905.73;103924;1263;60154;-59
2023/01/29 05:08:14;;;;;;;15.20;9.30;;;;;;;-1.97;100.00;99908.38;104040;1259;59995;-58
2023/01/29 05:10:44;;;;;;;15.00;9.60;;;;;;;-1.91;100.00;99909.13;103955;1263;72050;-59
2023/01/29 05:13:13;;;;;;;16.50;9.60;;;;;;;-1.89;100.00;99904.69;104391;1260;68850;-59
2023/01/29 05:15:47;;;;;;;13.00;9.00;;;;;;;-1.89;100.00;99903.83;104136;1259;72269;-59
2023/01/29 05:18:16;;;;;;;10.20;8.50;;;;;;;-1.92;100.00;99905.85;103947;1259;60155;-58
2023/01/29 05:20:44;;;;;;;13.10;9.10;;;;;;;-1.89;100.00;99906.39;104038;1264;59641;-59
2023/01/29 05:23:16;;;;;;;13.60;9.30;;;;;;;-1.85;100.00;99911.61;103800;1261;72548;-60
2023/01/29 05:25:46;;;;;;;14.00;9.80;;;;;;;-1.82;100.00;99918.17;104003;1263;69127;-59
2023/01/29 05:28:17;;;;;;;17.60;10.60;;;;;;;-1.84;100.00;99915.05;104137;1263;71852;-59
2023/01/29 05:30:47;;;;;;;14.70;9.30;;;;;;;-1.83;100.00;99916.10;104091;1272;59797;-58
2023/01/29 05:33:26;;;;;;;15.40;9.30;;;;;;;-1.85;100.00;99916.42;104303;1257;60244;-60
2023/01/29 05:35:57;;;;;;;15.00;9.50;;;;;;;-1.79;100.00;99918.36;104100;1260;72497;-58
2023/01/29 05:38:26;;;;;;;15.50;9.80;;;;;;;-1.71;100.00;99922.77;104322;1256;68784;-59
2023/01/29 05:40:57;;;;;;;16.30;10.20;;;;;;;-1.69;100.00;99922.61;104258;1257;72003;-58
2023/01/29 05:43:26;;;;;;;16.20;10.10;;;;;;;-1.69;100.00;99924.50;104216;1267;59919;-58
2023/01/29 05:45:56;;;;;;;15.50;9.90;;;;;;;-1.70;100.00;99924.15;104246;1257;59651;-59
2023/01/29 05:48:26;;;;;;;13.80;9.40;;;;;;;-1.72;100.00;99926.52;104348;1261;72309;-59
2023/01/29 05:51:04;;;;;;;14.30;9.50;;;;;;;-1.71;100.00;99923.28;104399;1272;68658;-57
2023/01/29 05:53:33;;;;;;;17.10;11.10;;;;;;;-1.62;100.00;99923.02;104338;1258;71998;-62
2023/01/29 05:56:02;;;;;;;16.40;9.30;;;;;;;-1.58;100.00;99923.41;104281;1269;59753;-57
2023/01/29 05:58:34;;;;;;;19.80;10.60;;;;;;;-1.59;100.00;99926.68;104376;1256;59627;-56
2023/01/29 06:01:18;;;;;;;15.50;9.50;;;;;;;-1.58;100.00;99927.04;104439;1257;72347;-61
2023/01/29 06:03:47;;;;;;;17.70;9.50;;;;;;;-1.60;100.00;99926.84;104143;1257;69592;-58
2023/01/29 06:06:16;;;;;;;17.30;10.30;;;;;;;-1.53;100.00;99924.84;104053;1261;73139;-58
2023/01/29 06:08:44;;;;;;;17.00;11.40;;;;;;;-1.42;100.00;99926.85;104093;1257;59738;-56
2023/01/29 06:11:12;;;;;;;18.30;11.40;;;;;;;-1.38;100.00;99928.96;104189;1261;59647;-56
2023/01/29 06:13:41;;;;;;;19.00;11.40;;;;;;;-1.36;100.00;99930.19;104106;1257;72065;-57
2023/01/29 06:16:10;;;;;;;19.50;11.30;;;;;;;-1.37;100.00;99925.87;104180;1261;70487;-58
2023/01/29 06:18:39;;;;;;;16.50;10.00;;;;;;;-1.40;100.00;99926.54;104260;1261;72953;-58
2023/01/29 06:21:10;;;;;;;17.30;10.10;;;;;;;-1.34;100.00;99928.65;104144;1258;60987;-58
2023/01/29 06:23:38;;;;;;;24.30;12.50;;;;;;;-1.21;100.00;99932.58;104274;1269;59764;-57
2023/01/29 06:26:09;;;;;;;19.30;11.10;;;;;;;-1.13;100.00;99929.55;104571;1263;72126;-56
2023/01/29 06:28:38;;;;;;;23.00;12.90;;;;;;;-1.08;100.00;99929.95;104195;1261;68644;-56
2023/01/29 06:31:07;;;;;;;22.80;12.10;;;;;;;-1.06;100.00;99928.58;104110;1261;71792;-56
2023/01/29 06:33:55;;;;;;;19.50;10.80;;;;;;;-1.06;100.00;99926.86;104307;1258;60869;-57
2023/01/29 06:36:23;;;;;;;24.90;13.40;;;;;;;-0.96;100.00;99931.07;104313;1257;60047;-57
2023/01/29 06:38:52;;;;;;;23.80;14.00;;;;;;;-0.85;100.00;99932.88;104156;1257;72432;-57
2023/01/29 06:41:24;;;;;;;26.60;12.60;;;;;;;-0.80;100.00;99924.31;104225;1262;68325;-57
2023/01/29 06:43:53;;;;;;;23.60;12.20;;;;;;;-0.80;100.00;99922.94;104189;1263;71840;-57
2023/01/29 06:46:22;;;;;;;26.90;13.40;;;;;;;-0.78;100.00;99921.59;104330;1258;60418;-57
2023/01/29 06:48:50;;;;;;;20.10;11.80;;;;;;;-0.77;100.00;99921.77;104262;1264;59672;-58
2023/01/29 06:51:21;;;;;;;23.90;12.60;;;;;;;-0.72;100.00;99920.25;104335;1260;72920;-57
2023/01/29 06:53:50;;;;;;;20.40;12.10;;;;;;;-0.61;100.00;99925.50;104362;1261;68985;-57
2023/01/29 06:56:18;;;;;;;18.30;11.20;;;;;;;-0.55;100.00;99926.40;104444;1261;71691;-56
2023/01/29 06:58:47;;;;;;;18.50;11.60;;;;;;;-0.51;100.00;99926.93;104229;1273;59764;-56
2023/01/29 07:01:15;;;;;;;17.00;11.50;;;;;;;-0.48;100.00;99931.09;104389;1257;60087;-57
2023/01/29 07:04:02;;;;;;;19.30;13.10;;;;;;;-0.52;100.00;99933.65;104392;1260;73115;-57
2023/01/29 07:06:31;;;;;;;20.40;12.90;;;;;;;-0.45;100.00;99933.35;104207;1272;68943;-56
2023/01/29 07:08:59;;;;;;;19.50;13.40;;;;;;;-0.34;100.00;99931.86;104298;1260;72663;-57
2023/01/29 07:11:34;;;;;;;19.70;12.80;;;;;;;-0.30;100.00;99931.54;104299;1261;59635;-56
2023/01/29 07:14:02;;;;;;;20.40;12.40;;;;;;;-0.25;100.00;99933.48;104154;1272;60345;-57
2023/01/29 07:16:31;;;;;;;18.60;11.30;;;;;;;-0.27;100.00;99930.02;104113;1260;71893;-59
2023/01/29 07:19:00;;;;;;;16.10;11.00;;;;;;;-0.32;100.00;99928.77;104486;1261;69756;-56
2023/01/29 07:21:28;;;;;;;19.60;11.40;;;;;;;-0.28;100.00;99929.65;104202;1260;71984;-58
2023/01/29 07:23:57;;;;;;;16.50;11.10;;;;;;;-0.17;100.00;99924.89;104140;1261;59741;-56
2023/01/29 07:26:25;;;;;;;16.60;10.90;;;;;;;-0.18;100.00;99928.51;104275;1260;59772;-56
2023/01/29 07:28:54;;;;;;;16.10;10.90;;;;;;;-0.21;100.00;99930.39;104190;1260;73264;-56
2023/01/29 07:31:22;;;;;;;15.50;9.90;;;;;;;-0.21;100.00;99932.46;104131;1259;69558;-56
2023/01/29 07:33:52;;;;;;;15.00;10.50;;;;;;;-0.23;100.00;99940.02;104062;1260;72312;-58
2023/01/29 07:36:20;;;;;;;15.30;10.00;;;;;;;-0.21;100.00;99939.70;104131;1257;61064;-60
2023/01/29 07:38:49;;;;;;;18.40;11.00;;;;;;;-0.12;100.00;99940.61;104125;1261;59729;-56
2023/01/29 07:41:18;;;;;;;17.10;11.00;;;;;;;-0.07;100.00;99938.39;104177;1257;72046;-56
2023/01/29 07:43:46;;;;;;;20.60;12.10;;;;;;;-0.09;100.00;99935.96;103978;1279;69564;-56
2023/01/29 07:46:15;;;;;;;18.90;12.20;;;;;;;-0.10;100.00;99933.89;104134;1270;72346;-56
2023/01/29 07:48:44;;;;;;;20.00;11.50;;;;;;;-0.11;100.00;99933.72;104121;1260;60444;-56
2023/01/29 07:51:13;;;;;;;20.40;12.40;;;;;;;-0.08;100.00;99933.05;104220;1257;59716;-58
2023/01/29 12:15:25;;;;;;;12.60;8.20;;;;;;;0.96;100.00;99780.06;102131;1291;62527;-58
2023/01/29 12:18:04;;;;;;;11.00;8.30;;;;;;;1.19;100.00;99780.54;103514;1270;59888;-58
2023/01/29 12:20:38;;;;;;;10.20;8.00;;;;;;;1.33;100.00;99782.56;103619;1265;72529;-58
2023/01/29 12:23:27;;;;;;;10.00;8.00;;;;;;;1.45;100.00;99777.35;103734;1269;119048;-62
2023/01/29 12:26:09;;;;;;;10.40;7.40;;;;;;;1.54;100.00;99770.76;103947;1265;71395;-58
2023/01/29 12:28:40;;;;;;;8.70;7.00;;;;;;;1.60;100.00;99769.36;103880;1275;61763;-58
2023/01/29 12:31:27;;;;;;;10.90;7.60;;;;;;;1.71;100.00;99773.95;104064;1266;60157;-58
2023/01/29 12:34:25;;;;;;;9.40;7.70;;;;;;;1.86;100.00;99772.33;104130;1266;71407;-57
2023/01/29 12:37:31;;;;;;;9.30;7.60;;;;;;;1.95;100.00;99770.02;104272;1255;69642;-58
2023/01/29 12:39:59;;;;;;;10.30;7.40;;;;;;;1.98;100.00;99773.81;104626;1257;72899;-58
2023/01/29 12:42:26;;;;;;;8.90;7.30;;;;;;;1.97;100.00;99773.65;104729;1256;61366;-57
2023/01/29 12:45:04;;;;;;;11.60;8.10;;;;;;;1.98;100.00;99776.58;104462;1256;60399;-58
2023/01/29 12:47:38;;;;;;;9.80;7.60;;;;;;;2.07;100.00;99779.14;104686;1261;72664;-58
2023/01/29 12:50:13;;;;;;;11.20;7.60;;;;;;;2.10;100.00;99777.21;104468;1255;69958;-61
2023/01/29 12:52:45;;;;;;;11.20;7.70;;;;;;;2.11;100.00;99775.48;104321;1253;72878;-59
2023/01/29 12:55:21;;;;;;;10.30;7.50;;;;;;;2.15;100.00;99775.80;104357;1255;61496;-59
2023/01/29 12:57:56;;;;;;;9.00;7.30;;;;;;;2.21;100.00;99767.80;104600;1253;60080;-58
2023/01/29 13:00:50;;;;;;;10.20;7.80;;;;;;;2.28;100.00;99764.80;104289;1252;72270;-61
2023/01/29 13:03:30;;;;;;;12.10;7.50;;;;;;;2.31;100.00;99762.36;104500;1255;68644;-57
2023/01/29 13:06:02;;;;;;;9.60;6.60;;;;;;;2.32;100.00;99764.42;104357;1260;72637;-59
2023/01/29 13:08:40;;;;;;;10.60;7.60;;;;;;;2.32;100.00;99767.55;104273;1258;62042;-58
2023/01/29 13:11:11;;;;;;;10.00;7.20;;;;;;;2.38;100.00;99764.58;104327;1257;60064;-59
2023/01/29 13:13:53;;;;;;;10.90;8.00;;;;;;;2.42;100.00;99763.16;104392;1256;72530;-57
2023/01/29 13:16:27;;;;;;;9.80;7.30;;;;;;;2.46;100.00;99761.89;104365;1255;69910;-57
2023/01/29 13:19:00;;;;;;;11.60;7.60;;;;;;;2.45;100.00;99764.86;104427;1257;72749;-57
2023/01/29 13:21:38;;;;;;;11.10;6.90;;;;;;;2.41;100.00;99761.42;104387;1254;59763;-57
2023/01/29 13:24:18;;;;;;;;;;;;;;;2.37;100.00;99760.23;104763;1258;59799;-59
2023/01/29 13:26:45;;;;;;;10.00;6.40;;;;;;;2.36;100.00;99759.04;104581;1254;72037;-58
2023/01/29 13:29:24;;;;;;;10.80;6.50;;;;;;;2.47;100.00;99760.86;104559;1257;69634;-59
2023/01/29 13:31:51;;;;;;;10.20;7.40;;;;;;;2.48;100.00;99759.82;104507;1257;72703;-58
2023/01/29 13:34:23;;;;;;;9.60;6.20;;;;;;;2.46;100.00;99759.13;104422;1253;59769;-57
2023/01/29 13:36:52;;;;;;;9.20;6.10;;;;;;;2.41;100.00;99758.66;104424;1268;59743;-60
2023/01/29 13:39:43;;;;;;;8.70;5.80;;;;;;;2.36;100.00;99758.34;104343;1257;73196;-61
2023/01/29 13:42:41;;;;;;;8.60;6.40;;;;;;;2.38;100.00;99754.70;104489;1259;68376;-58
2023/01/29 13:45:08;;;;;;;10.90;6.90;;;;;;;2.42;100.00;99755.36;104253;1259;72873;-58
2023/01/29 13:47:36;;;;;;;9.30;6.40;;;;;;;2.39;100.00;99753.83;104399;1257;59733;-57
2023/01/29 13:50:08;;;;;;;6.90;5.70;;;;;;;2.35;100.00;99754.20;104377;1256;59836;-57
2023/01/29 13:52:56;;;;;;;8.40;6.30;;;;;;;2.35;100.00;99760.95;104489;1258;73177;-57
2023/01/29 13:55:30;;;;;;;7.40;6.40;;;;;;;2.30;100.00;99760.12;104539;1261;70698;-58
2023/01/29 13:58:02;;;;;;;9.10;6.80;;;;;;;2.34;100.00;99760.61;104502;1257;72683;-58
2023/01/29 14:00:33;;;;;;;10.60;7.50;;;;;;;2.40;100.00;99760.04;104602;1253;59747;-57
2023/01/29 14:03:00;;;;;;;10.70;7.90;;;;;;;2.43;100.00;99763.66;104390;1261;60260;-57
2023/01/29 14:05:29;;;;;;;7.40;6.50;;;;;;;2.44;100.00;99761.74;104596;1258;71980;-58
2023/01/29 14:07:58;;;;;;;7.90;6.20;;;;;;;2.44;100.00;99759.32;104376;1255;68742;-58
2023/01/29 14:10:29;;;;;;;8.10;6.30;;;;;;;2.38;100.00;99757.13;104283;1262;73921;-59
2023/01/29 14:13:18;;;;;;;10.90;7.80;;;;;;;2.39;100.00;99755.91;104601;1253;61182;-59
2023/01/29 14:15:57;;;;;;;12.60;8.00;;;;;;;2.41;100.00;99751.73;104426;1260;59846;-56
2023/01/29 14:18:25;;;;;;;11.30;7.60;;;;;;;2.39;100.00;99749.33;104467;1257;73286;-58
2023/01/29 14:20:59;;;;;;;8.60;6.90;;;;;;;2.35;100.00;99752.64;104640;1257;69296;-58
2023/01/29 14:23:32;;;;;;;9.00;7.00;;;;;;;2.31;100.00;99748.18;104543;1256;72224;-57
2023/01/29 14:25:59;;;;;;;10.20;7.10;;;;;;;2.27;100.00;99747.69;104596;1253;60981;-58
2023/01/29 14:28:29;;;;;;;11.10;8.10;;;;;;;2.30;100.00;99749.91;104738;1256;60140;-57
2023/01/29 14:30:58;;;;;;;9.10;7.80;;;;;;;2.37;100.00;99746.23;104524;1254;73195;-57
2023/01/29 14:33:39;;;;;;;10.80;8.00;;;;;;;2.42;100.00;99744.46;104425;1258;69463;-57
2023/01/29 14:36:11;;;;;;;10.90;8.20;;;;;;;2.43;100.00;99747.39;104368;1257;72173;-57
2023/01/29 14:38:39;;;;;;;7.90;6.60;;;;;;;2.46;100.00;99750.33;104345;1270;59736;-57
2023/01/29 14:41:13;;;;;;;9.40;7.20;;;;;;;2.42;100.00;99751.04;104344;1257;60380;-57
2023/01/29 14:43:40;;;;;;;9.30;8.00;;;;;;;2.36;100.00;99749.52;104269;1257;73047;-57
2023/01/29 14:46:32;;;;;;;9.70;7.20;;;;;;;2.33;100.00;99748.49;104460;1258;69037;-57
2023/01/29 14:48:59;;;;;;;10.00;8.00;;;;;;;2.35;100.00;99748.83;104342;1257;73149;-58
2023/01/29 14:51:27;;;;;;;9.60;7.00;;;;;;;2.38;100.00;99748.64;104576;1253;59756;-57
2023/01/29 14:53:57;;;;;;;9.00;6.50;;;;;;;2.37;100.00;99754.54;104569;1256;60104;-57
2023/01/29 14:56:35;;;;;;;8.50;6.70;;;;;;;2.36;100.00;99758.16;104720;1252;73216;-57
2023/01/29 14:59:14;;;;;;;9.70;7.30;;;;;;;2.35;100.00;99763.38;104543;1253;69884;-57
2023/01/29 15:01:56;;;;;;;9.60;7.30;;;;;;;2.40;100.00;99761.95;104572;1261;71851;-57
2023/01/29 15:04:28;;;;;;;10.50;8.40;;;;;;;2.47;100.00;99762.59;104866;1257;60086;-57
2023/01/29 15:06:58;;;;;;;9.70;7.40;;;;;;;2.46;100.00;99765.19;104787;1259;59990;-58
2023/01/29 15:09:52;;;;;;;8.20;6.90;;;;;;;2.43;100.00;99766.94;104640;1253;73045;-57
2023/01/29 15:12:50;;;;;;;9.40;7.50;;;;;;;2.39;100.00;99776.48;104658;1256;68910;-57
2023/01/29 15:15:23;;;;;;;10.30;7.80;;;;;;;2.37;100.00;99773.91;104510;1256;72899;-60
2023/01/29 15:17:50;;;;;;;10.00;7.80;;;;;;;2.35;100.00;99774.79;104449;1257;60793;-60
2023/01/29 15:20:24;;;;;;;10.70;8.20;;;;;;;2.39;100.00;99772.86;104541;1252;59760;-59
2023/01/29 15:22:51;;;;;;;10.20;8.20;;;;;;;2.38;100.00;99772.87;104625;1256;72639;-60
2023/01/29 15:25:20;;;;;;;10.80;8.10;;;;;;;2.35;100.00;99770.46;104924;1256;69641;-60
2023/01/29 15:27:47;;;;;;;12.30;8.50;;;;;;;2.29;100.00;99773.28;104671;1257;72766;-60
2023/01/29 15:30:20;;;;;;;10.10;7.60;;;;;;;2.25;100.00;99771.06;104563;1258;59731;-61
2023/01/29 15:32:48;;;;;;;11.90;8.60;;;;;;;2.20;100.00;99769.70;104772;1254;59602;-58
2023/01/29 15:35:29;;;;;;;11.30;8.40;;;;;;;2.20;100.00;99770.92;104342;1258;72651;-59
2023/01/29 15:38:16;;;;;;;9.90;7.90;;;;;;;2.19;100.00;99776.30;104402;1258;68701;-58
2023/01/29 15:40:53;;;;;;;10.20;8.20;;;;;;;2.12;100.00;99778.24;104474;1257;71834;-61
2023/01/29 15:43:25;;;;;;;10.20;7.10;;;;;;;2.09;100.00;99776.86;104368;1257;59748;-59
2023/01/29 20:00:33;;;;;;;4.90;2.90;;;;;;;-1.75;100.00;99745.15;102097;1292;601182;-59
2023/01/29 20:03:03;;;;;;;5.10;4.20;;;;;;;-1.15;100.00;99735.64;103873;1283;61991;-59
2023/01/29 20:05:34;;;;;;;6.70;4.70;;;;;;;-0.86;100.00;99732.70;103832;1268;59384;-59
2023/01/29 20:08:03;;;;;;;8.40;5.70;;;;;;;-0.67;100.00;99722.30;103816;1269;72116;-59
2023/01/29 20:10:31;;;;;;;7.70;5.60;;;;;;;-0.53;100.00;99721.83;103918;1269;69609;-59
2023/01/29 20:13:00;;;;;;;5.90;5.00;;;;;;;-0.46;100.00;99719.10;103979;1268;224106;-61
2023/01/29 20:15:29;;;;;;;6.30;4.80;;;;;;;-0.48;100.00;99719.78;104060;1269;59633;-59
2023/01/29 20:17:57;;;;;;;7.00;5.30;;;;;;;-0.43;100.00;99714.45;104046;1264;60260;-62
2023/01/29 20:20:26;;;;;;;6.40;5.20;;;;;;;-0.35;100.00;99713.10;103900;1266;71467;-60
2023/01/29 20:23:00;;;;;;;6.10;5.50;;;;;;;-0.28;100.00;99714.33;103986;1266;68710;-59
2023/01/29 20:25:29;;;;;;;7.30;5.50;;;;;;;-0.31;100.00;99712.59;103971;1263;73256;-60
2023/01/29 20:27:57;;;;;;;5.20;4.30;;;;;;;-0.29;100.00;99712.95;103999;1266;59756;-60
2023/01/29 20:30:26;;;;;;;6.30;4.10;;;;;;;-0.29;100.00;99714.14;103952;1266;59800;-60
2023/01/29 20:32:54;;;;;;;6.00;4.50;;;;;;;-0.35;100.00;99713.96;104036;1263;72307;-61
2023/01/29 20:35:24;;;;;;;5.70;4.50;;;;;;;-0.30;100.00;99715.70;103992;1267;70201;-61
2023/01/29 20:37:52;;;;;;;6.30;4.80;;;;;;;-0.16;100.00;99715.05;104019;1260;72668;-61
2023/01/29 20:40:20;;;;;;;5.10;4.20;;;;;;;-0.06;100.00;99717.46;103988;1263;59835;-61
2023/01/29 20:42:49;;;;;;;5.20;4.60;;;;;;;-0.04;100.00;99715.92;103967;1263;59738;-62
2023/01/29 20:45:17;;;;;;;7.00;5.20;;;;;;;-0.04;100.00;99715.06;103911;1273;72923;-61
2023/01/29 20:47:45;;;;;;;5.00;4.40;;;;;;;-0.10;100.00;99718.33;103948;1279;69455;-60
2023/01/29 20:50:15;;;;;;;5.40;4.50;;;;;;;-0.14;100.00;99722.27;103965;1276;72417;-60
2023/01/29 20:52:44;;;;;;;5.30;4.30;;;;;;;-0.09;100.00;99725.73;103965;1261;60902;-60
2023/01/29 20:55:12;;;;;;;6.90;5.20;;;;;;;-0.00;100.00;99722.64;104621;1260;59896;-61
2023/01/29 20:57:41;;;;;;;5.20;4.50;;;;;;;0.02;100.00;99719.55;104472;1263;73317;-60
2023/01/29 21:00:11;;;;;;;6.80;5.00;;;;;;;0.02;100.00;99714.38;104050;1277;68526;-60
2023/01/29 21:02:39;;;;;;;5.50;4.50;;;;;;;0.02;100.00;99712.83;104119;1263;73426;-60
2023/01/29 21:05:08;;;;;;;5.00;4.30;;;;;;;-0.00;100.00;99716.60;104042;1263;59701;-61
2023/01/29 21:07:37;;;;;;;6.10;4.30;;;;;;;-0.03;100.00;99715.58;104136;1261;60503;-61
2023/01/29 21:10:08;;;;;;;4.80;4.20;;;;;;;0.01;100.00;99711.63;104137;1260;72168;-60
2023/01/29 21:12:37;;;;;;;5.90;4.30;;;;;;;0.09;100.00;99716.27;103987;1265;69496;-59
2023/01/29 21:15:06;;;;;;;5.40;4.60;;;;;;;0.11;100.00;99714.20;104069;1263;72856;-60
2023/01/29 21:17:35;;;;;;;5.00;4.20;;;;;;;0.11;100.00;99713.52;104548;1260;59534;-59
2023/01/29 21:20:07;;;;;;;4.90;3.90;;;;;;;0.04;100.00;99708.00;104462;1255;60146;-60
2023/01/29 21:22:35;;;;;;;4.60;4.10;;;;;;;0.06;100.00;99710.76;104739;1257;71766;-59
2023/01/29 21:25:04;;;;;;;4.20;3.50;;;;;;;0.07;100.00;99708.17;104674;1256;68632;-58
2023/01/29 21:27:33;;;;;;;5.50;3.60;;;;;;;0.03;100.00;99706.63;104494;1271;71743;-58
2023/01/29 21:30:03;;;;;;;5.30;4.50;;;;;;;-0.06;100.00;99702.30;104577;1252;61233;-59
2023/01/29 21:32:31;;;;;;;5.30;4.30;;;;;;;-0.06;100.00;99697.48;104623;1269;59604;-58
2023/01/29 21:34:59;;;;;;;5.10;4.60;;;;;;;0.00;100.00;99694.56;104660;1253;72115;-59
2023/01/29 21:37:29;;;;;;;5.60;4.40;;;;;;;0.04;100.00;99694.04;104530;1253;69898;-58
2023/01/29 21:39:57;;;;;;;5.50;4.50;;;;;;;0.05;100.00;99691.80;104604;1251;72630;-59
2023/01/29 21:45:12;;;;;;;4.60;3.80;;;;;;;-0.03;100.00;99694.38;104588;1256;61104;-59
2023/01/29 21:47:41;;;;;;;5.50;4.20;;;;;;;-0.05;100.00;99690.94;104658;1267;72720;-58
2023/01/29 21:50:10;;;;;;;5.30;4.80;;;;;;;-0.13;100.00;99687.30;104621;1270;68428;-59
2023/01/29 21:52:39;;;;;;;5.20;4.30;;;;;;;-0.07;100.00;99697.65;104600;1260;71774;-59
2023/01/29 21:55:07;;;;;;;5.50;4.80;;;;;;;-0.02;100.00;99697.83;104586;1258;59755;-58
2023/01/29 21:57:36;;;;;;;5.90;4.40;;;;;;;-0.04;100.00;99688.52;104565;1253;59736;-58
2023/01/29 22:00:05;;;;;;;5.10;4.30;;;;;;;-0.09;100.00;99683.86;104880;1251;73216;-59
2023/01/29 22:02:36;;;;;;;4.50;3.40;;;;;;;-0.08;100.00;99683.00;104653;1256;68669;-59
2023/01/29 22:05:06;;;;;;;4.70;3.90;;;;;;;-0.05;100.00;99684.55;104673;1255;71864;-59
2023/01/29 22:07:47;;;;;;;4.20;3.50;;;;;;;-0.03;100.00;99684.55;104481;1256;59623;-59
2023/01/29 22:10:16;;;;;;;4.50;3.90;;;;;;;-0.04;100.00;99685.41;104323;1257;59589;-59
2023/01/29 22:12:47;;;;;;;4.00;3.40;;;;;;;-0.04;100.00;99680.77;104557;1256;73163;-59
2023/01/29 22:15:15;;;;;;;5.60;4.50;;;;;;;0.00;100.00;99674.21;104672;1256;69092;-59
2023/01/29 22:17:44;;;;;;;6.20;4.30;;;;;;;0.08;100.00;99670.42;104439;1260;72014;-60
2023/01/29 22:20:13;;;;;;;5.20;4.40;;;;;;;0.13;100.00;99675.25;104771;1253;61024;-60
2023/01/29 22:22:42;;;;;;;4.90;4.10;;;;;;;0.12;100.00;99674.39;104528;1252;60495;-58
2023/01/29 22:25:10;;;;;;;6.10;4.20;;;;;;;0.12;100.00;99676.11;104613;1256;72777;-58
2023/01/29 22:27:39;;;;;;;3.90;3.50;;;;;;;0.10;100.00;99674.39;104358;1254;70750;-58
2023/01/29 22:30:08;;;;;;;4.80;4.00;;;;;;;0.10;100.00;99675.25;104559;1263;72817;-59
2023/01/29 22:32:37;;;;;;;5.50;3.80;;;;;;;0.11;100.00;99666.63;104505;1251;59642;-59
2023/01/29 22:35:06;;;;;;;3.90;3.30;;;;;;;0.13;100.00;99660.43;104467;1257;59928;-58
2023/01/29 22:37:35;;;;;;;5.00;3.70;;;;;;;0.10;100.00;99656.81;104552;1256;72840;-58
2023/01/29 22:40:04;;;;;;;3.20;2.90;;;;;;;0.04;100.00;99654.41;104535;1256;69252;-59
2023/01/29 22:42:33;;;;;;;5.20;3.40;;;;;;;0.08;100.00;99656.64;104390;1260;72850;-58
2023/01/29 22:45:02;;;;;;;6.10;4.50;;;;;;;0.17;100.00;99657.84;104645;1251;59749;-59
2023/01/29 22:47:33;;;;;;;4.70;3.80;;;;;;;0.21;100.00;99658.70;104380;1259;59627;-61
2023/01/29 22:50:03;;;;;;;5.00;3.70;;;;;;;0.20;100.00;99651.80;104865;1251;72445;-58
2023/01/29 22:52:37;;;;;;;3.60;3.00;;;;;;;0.20;100.00;99649.56;104592;1263;69406;-58
2023/01/29 22:55:10;;;;;;;4.40;3.30;;;;;;;0.19;100.00;99648.86;104833;1258;72454;-60
2023/01/29 22:57:39;;;;;;;4.00;3.20;;;;;;;0.17;100.00;99646.11;104300;1256;60089;-58
2023/01/29 23:00:09;;;;;;;3.70;2.60;;;;;;;0.13;100.00;99651.81;104671;1251;61319;-58
2023/01/29 23:02:38;;;;;;;3.90;3.00;;;;;;;0.10;100.00;99645.95;104509;1263;73343;-58
2023/01/29 23:05:07;;;;;;;4.20;3.60;;;;;;;-0.05;100.00;99642.33;104499;1256;68729;-58
2023/01/29 23:07:35;;;;;;;3.80;3.30;;;;;;;-0.03;100.00;99641.98;104510;1257;73580;-59
2023/01/29 23:10:04;;;;;;;5.00;3.50;;;;;;;0.08;100.00;99641.46;104518;1251;60327;-59
2023/01/29 23:12:34;;;;;;;4.40;3.00;;;;;;;0.09;100.00;99634.05;104803;1256;59802;-59
2023/01/29 23:15:04;;;;;;;5.50;2.90;;;;;;;0.03;100.00;99630.95;104672;1256;71982;-59
2023/01/29 23:17:32;;;;;;;2.90;2.60;;;;;;;0.07;100.00;99625.09;104454;1251;68574;-59
2023/01/29 23:20:01;;;;;;;2.90;2.50;;;;;;;0.10;100.00;99622.16;104428;1256;71678;-59
2023/01/29 23:22:30;;;;;;;3.40;2.80;;;;;;;0.08;100.00;99622.33;104426;1257;59662;-59
2023/01/29 23:25:01;;;;;;;2.80;2.50;;;;;;;0.04;100.00;99614.41;104513;1254;60049;-58
2023/01/29 23:27:30;;;;;;;2.60;2.30;;;;;;;0.00;100.00;99613.38;104428;1261;72631;-59
2023/01/29 23:29:59;;;;;;;1.90;1.80;;;;;;;-0.00;100.00;99608.39;104407;1257;68325;-58
2023/01/29 23:32:27;;;;;;;2.50;2.30;;;;;;;0.01;100.00;99606.48;104588;1254;71503;-59
2023/01/29 23:34:55;;;;;;;3.20;2.70;;;;;;;0.05;100.00;99599.92;104576;1256;60194;-59
2023/01/29 23:37:24;;;;;;;2.60;2.40;;;;;;;0.11;100.00;99595.44;104335;1253;59653;-59
2023/01/29 23:39:52;;;;;;;2.60;2.40;;;;;;;0.11;100.00;99590.10;104589;1252;71720;-59
2023/01/29 23:42:21;;;;;;;2.90;2.50;;;;;;;0.09;100.00;99592.17;104417;1269;69604;-59
2023/01/29 23:44:49;;;;;;;2.90;2.40;;;;;;;0.08;100.00;99592.34;104405;1255;72624;-59
2023/01/29 23:50:33;;;;;;;2.50;2.10;;;;;;;-0.69;100.00;99586.61;102408;1291;600802;-59
2023/01/29 23:53:02;;;;;;;3.10;2.20;;;;;;;-0.28;100.00;99578.93;103827;1269;59262;-59
2023/01/29 23:55:30;;;;;;;3.80;1.90;;;;;;;-0.24;100.00;99568.41;103701;1267;60178;-59
2023/01/29 23:57:58;;;;;;;3.10;2.00;;;;;;;-0.24;100.00;99566.18;103767;1268;72207;-58
